Aérodrome :
LOGIN :

S'inscrire | Disclaimer

   EN    FR    IT 

 










Légende :    VFR   VFR Marginal   IFR   IFR Intensif   IFR Très Intensif
Visi : 
Plafond : 
>= 8 km
>= 3000ft
5 à 8 km
1000 à 3000 ft
1500m à 5 km
500 à 1000 ft
800 à 1500m
200 à 500 ft
< 800m
< 200 ft
Symboles :   Orages  Brouillard  Fortes neiges  Fortes précipitations  Vent > 20 kt
SIGMETs :   Divers  Orages  Givrage  Turbulence  Onde Orograph.  Cendres Volcan.







- Altitude de l'aérodrome : 856 ft
- Code IATA : VGO


LEVX - Vigo Peinador

DERNIER METAR :
  • 230000Z 00000KT CAVOK 09/07 Q1027 NOSIG

METARs EXPIRÉS :
  • 222330Z 00000KT CAVOK 10/08 Q1027 NOSIG
  • 222300Z VRB01KT CAVOK 10/08 Q1027 NOSIG
  • 222230Z 00000KT CAVOK 10/08 Q1028 NOSIG
  • 222200Z VRB01KT CAVOK 11/08 Q1028 NOSIG

TAF TAF LEVX
Valide du 23 à 00h jusqu'au 24 à 00h UTC


222300Z 2300/2324 VRB04KT CAVOK TX19/2315Z TN06/2306Z
TEMPO 2312/2317 27010KT
PROB30
TEMPO 2302/2307 0350 BCFG BKN001
Pas de NOTAMs connus pour ce terrain.



MET'MAP, la Météo Aéronautique d'un coup d'oeil ! - Copyright ORBIFLY Décembre 2007 - Disclaimer

ORBIFLY MET'MAP TEAM :

Programmation & Développement : Alexandra Zaïnal
Conception & Développement : Baudouin d'Aumeries
Co-Programmation & Développement : Marc-Olivier Méhu
Soutien technique & logistique : Manuel Goepfert

Contact : metmap@orbifly.com




SOURCES & CREDITS :

   NOAA